DVDO2: Red Rr at US 183 bridge nr Davidson 2S

Data processed at Fri May 24 2019 23:50


All information presented herein is the property of the government of the United States of America and may be revised or deleted at any time without prior notice.
Dissemination of this information without the expressed written consent of the Public Affairs Office, Tulsa District U.S. Army Corps of Engineers is strictly prohibited.
These data are gathered electronically and, as presented, have not undergone any form of quality control. These data are not guaranteed to be valid or correct.
Go to home page.
Go to station list.
Go to home page.

Upstream stations:

Downstream station:
Previous Day
Next Day
Current Day
    
SHEF ID:       DVDO2     Red River at US 183 Bridge
STATION TYPE:  
Regulating: Stage =     9.00, Flow =    10940

               PRECIP     STAGE  RIV-FLOW   VOLTAGE
                   in        ft       cfs      volt
              Ccp-Rev   Ccp-Rev   Ccp-Rev   Ccp-Rev
(US/Central)
05/24 00:00      0.00      9.31     13293     13.00
05/24 01:00      0.00      9.36     13818     13.00
05/24 02:00      0.00      9.34     13606     12.90
05/24 03:00      0.00      9.38     14032     12.90
05/24 04:00      0.00      9.43     14581     12.90
05/24 05:00      0.00      9.37     13925     12.90
05/24 06:00      0.00      9.44     14693     12.90
05/24 07:00      0.00      9.39     14141     13.00
05/24 08:00      0.00      9.39     14141     13.40
05/24 09:00      0.00      9.39     14141     14.20
05/24 10:00      0.00      9.45     14806     14.10
05/24 11:00      0.00      9.43     14581     14.10
05/24 12:00      0.00      9.43     14581     14.00
05/24 13:00      0.00      9.41     14360     14.00
05/24 14:00      0.00      9.38     14032     14.00
05/24 15:00      0.00      9.41     14360     14.00
05/24 16:00      0.00      9.33     13501     14.00
05/24 17:00      0.00      9.33     13501     14.00
05/24 18:00      0.00      9.22     12385     13.60
05/24 19:00      0.00      9.21     12287     13.00
05/24 20:00      0.00      9.14     11809     12.90
05/24 21:00      0.00      9.19     12126     12.90
05/24 22:00      0.03      9.14     11809     12.90
05/24 23:00      0.04      9.26     12782     12.90